createdAt,value
2023-04-08T00:02:21.996Z,7.60
2023-04-08T00:04:50.507Z,7.50
2023-04-08T00:07:18.444Z,7.40
2023-04-08T00:09:46.536Z,7.50
2023-04-08T00:12:14.816Z,7.50
2023-04-08T00:14:42.746Z,7.40
2023-04-08T00:17:10.846Z,7.30
2023-04-08T00:19:40.825Z,7.20
2023-04-08T00:22:09.108Z,7.20
2023-04-08T00:24:37.371Z,7.20
2023-04-08T00:27:05.389Z,7.10
2023-04-08T00:29:33.554Z,7.10
2023-04-08T00:32:01.856Z,7.10
2023-04-08T00:34:29.802Z,7.00
2023-04-08T00:36:59.163Z,7.00
2023-04-08T00:39:27.267Z,6.90
2023-04-08T00:41:56.255Z,6.90
2023-04-08T00:44:24.442Z,6.90
2023-04-08T00:46:52.447Z,6.90
2023-04-08T00:49:21.016Z,6.70
2023-04-08T00:51:48.926Z,6.70
2023-04-08T00:54:18.252Z,6.80
2023-04-08T00:56:46.862Z,6.70
2023-04-08T00:59:15.360Z,6.70
2023-04-08T01:01:49.000Z,6.70
2023-04-08T01:04:27.057Z,6.70
2023-04-08T01:07:00.766Z,6.90
2023-04-08T01:09:36.581Z,6.80
2023-04-08T01:12:09.384Z,6.80
2023-04-08T01:14:43.451Z,6.70
2023-04-08T01:17:11.959Z,6.70
2023-04-08T01:19:41.870Z,6.60
2023-04-08T01:22:20.259Z,6.60
2023-04-08T01:24:51.700Z,6.60
2023-04-08T01:27:21.506Z,6.50
2023-04-08T01:29:50.659Z,6.50
2023-04-08T01:32:19.343Z,6.60
2023-04-08T01:34:47.666Z,6.50
2023-04-08T01:37:17.193Z,6.50
2023-04-08T01:39:46.025Z,6.40
2023-04-08T01:42:14.771Z,6.30
2023-04-08T01:44:44.610Z,6.40
2023-04-08T01:47:14.668Z,6.40
2023-04-08T01:49:43.661Z,6.30
2023-04-08T01:52:12.684Z,6.30
2023-04-08T01:54:40.583Z,6.30
2023-04-08T01:57:13.386Z,6.30
2023-04-08T01:59:43.273Z,6.30
2023-04-08T02:02:12.252Z,6.30
2023-04-08T02:04:40.884Z,6.30
2023-04-08T02:07:09.563Z,6.30
2023-04-08T02:09:37.467Z,6.40
2023-04-08T02:12:05.847Z,6.30
2023-04-08T02:14:33.829Z,6.30
2023-04-08T02:17:10.029Z,6.20
2023-04-08T02:19:45.310Z,6.20
2023-04-08T02:22:20.211Z,6.20
2023-04-08T02:24:49.235Z,6.30
2023-04-08T02:27:19.710Z,6.20
2023-04-08T02:29:49.430Z,6.20
2023-04-08T02:32:19.320Z,6.00
2023-04-08T02:34:48.527Z,6.10
2023-04-08T02:37:16.511Z,6.10
2023-04-08T02:39:44.658Z,6.10
2023-04-08T02:42:12.563Z,6.10
2023-04-08T02:44:41.261Z,6.10
2023-04-08T02:47:09.238Z,6.20
2023-04-08T02:49:38.677Z,6.10
2023-04-08T02:52:06.798Z,6.00
2023-04-08T02:54:35.019Z,6.00
2023-04-08T02:57:03.208Z,6.00
2023-04-08T02:59:31.182Z,6.10
2023-04-08T03:01:59.278Z,6.20
2023-04-08T03:04:27.279Z,6.10
2023-04-08T03:06:56.705Z,6.20
2023-04-08T03:09:24.607Z,6.20
2023-04-08T03:11:55.094Z,6.20
2023-04-08T03:14:23.265Z,6.20
2023-04-08T03:16:51.272Z,6.30
2023-04-08T03:19:19.385Z,6.30
2023-04-08T03:21:47.278Z,6.40
2023-04-08T03:24:16.800Z,6.40
2023-04-08T03:26:45.022Z,6.40
2023-04-08T03:29:13.072Z,6.50
2023-04-08T03:31:41.356Z,6.60
2023-04-08T03:34:09.332Z,6.50
2023-04-08T03:36:37.555Z,6.60
2023-04-08T03:39:05.962Z,6.50
2023-04-08T03:41:35.527Z,6.50
2023-04-08T03:44:03.464Z,6.70
2023-04-08T03:46:31.581Z,6.70
2023-04-08T03:48:59.683Z,6.70
2023-04-08T03:51:28.698Z,6.70
2023-04-08T03:53:56.723Z,6.70
2023-04-08T03:56:25.100Z,6.70
2023-04-08T03:58:54.543Z,6.70
2023-04-08T04:01:22.427Z,6.70
2023-04-08T04:03:50.447Z,6.80
2023-04-08T04:06:18.654Z,6.80
2023-04-08T04:08:46.495Z,6.80
2023-04-08T04:11:14.561Z,6.70
2023-04-08T04:13:42.470Z,6.70
2023-04-08T04:16:11.867Z,6.70
2023-04-08T04:18:39.780Z,6.70
2023-04-08T04:21:08.320Z,6.70
2023-04-08T04:23:36.265Z,6.70
2023-04-08T04:26:08.658Z,6.70
2023-04-08T04:28:36.582Z,6.80
2023-04-08T04:31:04.588Z,6.80
2023-04-08T04:33:34.080Z,6.90
2023-04-08T04:36:02.029Z,6.90
2023-04-08T04:38:30.578Z,7.00
2023-04-08T04:40:59.132Z,7.00
2023-04-08T04:43:27.052Z,7.00
2023-04-08T04:45:54.941Z,7.00
2023-04-08T04:48:23.249Z,7.00
2023-04-08T04:50:57.521Z,7.20
2023-04-08T04:53:26.013Z,7.20
2023-04-08T04:55:53.966Z,7.30
2023-04-08T04:58:22.093Z,7.40
2023-04-08T05:00:50.120Z,7.50
2023-04-08T05:03:18.084Z,7.40
2023-04-08T05:05:46.589Z,7.50
2023-04-08T05:08:15.863Z,7.50
2023-04-08T05:10:43.903Z,7.60
2023-04-08T05:13:11.827Z,7.60
2023-04-08T05:15:39.931Z,7.70
2023-04-08T05:18:07.916Z,7.70
2023-04-08T05:20:36.366Z,7.80
2023-04-08T05:23:04.417Z,7.80
2023-04-08T05:25:33.867Z,7.90
2023-04-08T05:28:01.816Z,8.10
2023-04-08T05:30:30.052Z,8.10
2023-04-08T05:33:00.172Z,8.20
2023-04-08T05:35:28.893Z,8.20
2023-04-08T05:37:56.841Z,8.20
2023-04-08T05:40:25.164Z,8.20
2023-04-08T05:42:54.553Z,8.30
2023-04-08T05:45:22.601Z,8.40
2023-04-08T05:47:50.712Z,8.40
2023-04-08T05:50:18.749Z,8.40
2023-04-08T05:52:47.079Z,8.50
2023-04-08T05:55:15.855Z,8.60
2023-04-08T05:57:43.919Z,8.70
2023-04-08T06:00:13.993Z,8.70
2023-04-08T06:02:42.100Z,8.80
2023-04-08T06:05:11.016Z,8.80
2023-04-08T06:07:38.940Z,8.90
2023-04-08T06:10:07.545Z,9.00
2023-04-08T06:12:37.226Z,9.00
2023-04-08T06:15:05.900Z,9.00
2023-04-08T06:17:37.683Z,9.10
2023-04-08T06:20:07.000Z,9.10
2023-04-08T06:22:36.213Z,9.20
2023-04-08T06:25:04.446Z,9.20
2023-04-08T06:27:32.600Z,9.10
2023-04-08T06:30:00.459Z,8.90
2023-04-08T06:32:28.683Z,8.90
2023-04-08T06:34:58.182Z,8.90
2023-04-08T06:37:26.365Z,8.80
2023-04-08T06:39:54.275Z,8.60
2023-04-08T06:42:23.172Z,8.70
2023-04-08T06:44:51.106Z,8.60
2023-04-08T06:47:18.942Z,8.60
2023-04-08T06:49:47.580Z,8.70
2023-04-08T06:52:17.982Z,8.50
2023-04-08T06:54:46.393Z,8.30
2023-04-08T06:57:14.488Z,8.40
2023-04-08T06:59:42.588Z,8.50
2023-04-08T07:02:10.509Z,8.50
2023-04-08T07:04:38.389Z,8.60
2023-04-08T07:07:06.415Z,8.60
2023-04-08T07:09:36.975Z,8.60
2023-04-08T07:12:05.568Z,8.60
2023-04-08T07:14:33.418Z,8.60
2023-04-08T07:17:01.802Z,8.60
2023-04-08T07:19:30.167Z,8.50
2023-04-08T07:21:58.241Z,8.60
2023-04-08T07:24:26.151Z,8.60
2023-04-08T07:26:56.986Z,8.70
2023-04-08T07:29:24.880Z,8.70
2023-04-08T07:31:52.768Z,8.80
2023-04-08T07:34:21.004Z,8.80
2023-04-08T07:36:48.871Z,8.80
2023-04-08T07:39:17.037Z,8.70
2023-04-08T07:41:44.938Z,8.90
2023-04-08T07:44:17.044Z,8.80
2023-04-08T07:46:49.344Z,8.80
2023-04-08T07:49:17.260Z,8.80
2023-04-08T07:51:45.230Z,8.70
2023-04-08T07:54:17.184Z,8.70
2023-04-08T07:56:45.463Z,8.80
2023-04-08T07:59:14.955Z,9.00
2023-04-08T08:01:43.248Z,9.20
2023-04-08T08:04:11.267Z,9.20
2023-04-08T08:06:39.389Z,9.30
2023-04-08T08:09:07.273Z,9.40
2023-04-08T08:11:35.214Z,9.50
2023-04-08T08:14:04.680Z,9.50
2023-04-08T08:16:34.061Z,9.50
2023-04-08T08:19:02.010Z,9.40
2023-04-08T08:21:29.886Z,9.20
2023-04-08T08:23:59.648Z,9.10
2023-04-08T08:26:28.716Z,9.00
2023-04-08T08:28:56.593Z,8.90
2023-04-08T08:31:24.683Z,8.80
2023-04-08T08:33:54.118Z,8.80
2023-04-08T08:36:22.392Z,8.70
2023-04-08T08:38:52.071Z,8.60
2023-04-08T08:41:19.958Z,8.60
2023-04-08T08:43:48.724Z,8.60
2023-04-08T08:46:19.170Z,8.40
2023-04-08T08:48:47.387Z,8.30
2023-04-08T08:51:16.777Z,8.30
2023-04-08T08:53:45.390Z,8.20
2023-04-08T08:56:18.285Z,8.30
2023-04-08T08:58:47.434Z,8.20
2023-04-08T09:01:33.301Z,8.30
2023-04-08T09:04:20.485Z,8.30
2023-04-08T09:06:51.697Z,8.10
2023-04-08T09:09:19.644Z,7.90
2023-04-08T09:11:48.503Z,7.90
2023-04-08T09:14:21.277Z,7.80
2023-04-08T09:16:49.851Z,7.70
2023-04-08T09:19:18.104Z,7.70
2023-04-08T09:21:46.293Z,7.70
2023-04-08T09:24:32.066Z,7.50
2023-04-08T09:27:00.882Z,7.60
2023-04-08T09:29:33.390Z,7.50
2023-04-08T09:32:03.039Z,7.50
2023-04-08T09:34:34.642Z,7.50
2023-04-08T09:37:03.066Z,7.60
2023-04-08T09:39:32.494Z,7.70
2023-04-08T09:42:02.323Z,7.90
2023-04-08T09:44:31.144Z,8.00
2023-04-08T09:47:06.901Z,8.00
2023-04-08T09:49:39.622Z,8.10
2023-04-08T09:52:09.418Z,8.10
2023-04-08T09:54:45.918Z,8.10
2023-04-08T09:57:17.949Z,8.10
2023-04-08T09:59:51.528Z,8.10
2023-04-08T10:02:30.519Z,8.30
2023-04-08T10:05:01.476Z,8.50
2023-04-08T10:07:29.447Z,8.70
2023-04-08T10:09:58.902Z,8.70
2023-04-08T10:12:27.085Z,8.90
2023-04-08T10:15:23.450Z,9.10
2023-04-08T10:17:51.574Z,9.40
2023-04-08T10:20:45.283Z,9.80
2023-04-08T10:23:14.520Z,10.20
2023-04-08T10:25:45.264Z,10.60
2023-04-08T10:28:26.626Z,10.70
2023-04-08T10:30:55.891Z,10.30
2023-04-08T10:33:25.843Z,10.20
2023-04-08T10:36:03.007Z,10.30
2023-04-08T10:38:31.511Z,10.40
2023-04-08T10:41:00.792Z,10.40
2023-04-08T10:43:34.682Z,10.40
2023-04-08T10:46:02.790Z,10.30
2023-04-08T10:48:30.917Z,10.30
2023-04-08T10:51:00.835Z,10.10
2023-04-08T10:53:29.894Z,10.10
2023-04-08T10:56:07.493Z,10.00
2023-04-08T10:58:36.862Z,10.00
2023-04-08T11:01:07.061Z,9.70
2023-04-08T11:03:36.107Z,9.60
2023-04-08T11:06:05.133Z,9.50
2023-04-08T11:08:34.096Z,9.40
2023-04-08T11:11:02.754Z,9.30
2023-04-08T11:13:33.011Z,9.10
2023-04-08T11:16:02.610Z,8.90
2023-04-08T11:18:31.537Z,8.90
2023-04-08T11:21:00.315Z,9.00
2023-04-08T11:23:28.617Z,8.80
2023-04-08T11:25:57.237Z,8.80
2023-04-08T11:28:27.287Z,8.70
2023-04-08T11:30:58.091Z,8.60
2023-04-08T11:33:27.379Z,8.60
2023-04-08T11:35:55.431Z,8.60
2023-04-08T11:38:24.784Z,8.80
2023-04-08T11:40:56.873Z,8.70
2023-04-08T11:43:25.070Z,8.70
2023-04-08T11:45:53.421Z,8.70
2023-04-08T11:48:24.054Z,8.80
2023-04-08T11:51:04.655Z,8.70
2023-04-08T11:53:32.843Z,8.80
2023-04-08T11:56:17.272Z,8.70
2023-04-08T11:58:45.470Z,8.60
2023-04-08T12:01:13.499Z,8.60
2023-04-08T12:03:58.963Z,8.60
2023-04-08T12:06:27.739Z,8.40
2023-04-08T12:08:56.413Z,8.30
2023-04-08T12:11:25.202Z,8.20
2023-04-08T12:13:53.910Z,8.20
2023-04-08T12:16:22.221Z,8.20
2023-04-08T12:18:51.518Z,8.10
2023-04-08T12:21:19.677Z,8.10
2023-04-08T12:23:47.663Z,8.00
2023-04-08T12:26:15.745Z,7.80
2023-04-08T12:28:43.801Z,7.80
2023-04-08T12:31:11.744Z,7.80
2023-04-08T12:33:39.906Z,7.70
2023-04-08T12:36:10.991Z,7.70
2023-04-08T12:38:40.129Z,7.90
2023-04-08T12:41:08.359Z,8.10
2023-04-08T12:43:36.315Z,8.00
2023-04-08T12:46:04.369Z,7.90
2023-04-08T12:48:33.123Z,7.80
2023-04-08T12:51:01.554Z,7.90
2023-04-08T12:53:30.930Z,7.80
2023-04-08T12:55:58.833Z,7.80
2023-04-08T12:58:26.863Z,7.90
2023-04-08T13:00:54.968Z,7.90
2023-04-08T13:03:23.099Z,7.90
2023-04-08T13:05:51.257Z,7.90
2023-04-08T13:08:19.401Z,7.70
2023-04-08T13:10:48.694Z,7.90
2023-04-08T13:13:16.758Z,7.90
2023-04-08T13:15:44.894Z,7.70
2023-04-08T13:18:12.991Z,7.70
2023-04-08T13:20:40.990Z,7.70
2023-04-08T13:23:09.172Z,7.70
2023-04-08T13:25:37.355Z,7.70
2023-04-08T13:28:06.886Z,7.80
2023-04-08T13:30:34.907Z,7.60
2023-04-08T13:33:03.113Z,7.50
2023-04-08T13:35:31.395Z,7.50
2023-04-08T13:37:59.417Z,7.60
2023-04-08T13:40:28.090Z,7.50
2023-04-08T13:42:56.053Z,7.40
2023-04-08T13:45:26.198Z,7.40
2023-04-08T13:47:54.271Z,7.30
2023-04-08T13:50:22.507Z,7.10
2023-04-08T13:52:50.802Z,7.20
2023-04-08T13:55:19.360Z,7.20
2023-04-08T13:57:47.353Z,7.30
2023-04-08T14:00:15.845Z,7.30
2023-04-08T14:02:45.669Z,7.30
2023-04-08T14:05:14.016Z,7.40
2023-04-08T14:07:42.042Z,7.40
2023-04-08T14:10:11.113Z,7.60
2023-04-08T14:12:39.344Z,7.70
2023-04-08T14:15:08.898Z,7.80
2023-04-08T14:17:37.157Z,7.50
2023-04-08T14:20:08.317Z,7.50
2023-04-08T14:22:36.448Z,7.50
2023-04-08T14:25:04.769Z,7.50
2023-04-08T14:27:33.401Z,7.50
2023-04-08T14:30:02.150Z,7.50
2023-04-08T14:32:30.530Z,7.50
2023-04-08T14:34:58.734Z,7.50
2023-04-08T14:37:28.097Z,7.60
2023-04-08T14:39:56.736Z,7.70
2023-04-08T14:42:25.149Z,7.80
2023-04-08T14:44:53.039Z,7.90
2023-04-08T14:47:21.131Z,7.90
2023-04-08T14:49:49.148Z,8.00
2023-04-08T14:52:17.067Z,7.80
2023-04-08T14:54:47.081Z,7.80
2023-04-08T14:57:16.750Z,7.80
2023-04-08T14:59:44.921Z,7.80
2023-04-08T15:02:12.874Z,8.00
2023-04-08T15:04:41.063Z,7.80
2023-04-08T15:07:09.179Z,7.80
2023-04-08T15:09:37.642Z,7.80
2023-04-08T15:12:07.330Z,7.80
2023-04-08T15:14:35.319Z,7.80
2023-04-08T15:17:03.402Z,7.90
2023-04-08T15:19:31.295Z,7.90
2023-04-08T15:21:59.345Z,7.90
2023-04-08T15:24:27.509Z,7.90
2023-04-08T15:26:56.284Z,7.80
2023-04-08T15:29:26.224Z,7.70
2023-04-08T15:31:54.147Z,7.70
2023-04-08T15:34:22.321Z,7.70
2023-04-08T15:36:50.884Z,7.70
2023-04-08T15:39:18.883Z,7.80
2023-04-08T15:41:46.999Z,7.80
2023-04-08T15:44:14.915Z,7.90
2023-04-08T15:46:44.445Z,7.80
2023-04-08T15:49:12.529Z,7.80
2023-04-08T15:51:44.585Z,7.90
2023-04-08T15:54:12.769Z,7.90
2023-04-08T15:56:40.716Z,7.90
2023-04-08T15:59:08.930Z,7.90
2023-04-08T16:01:37.072Z,7.60
2023-04-08T16:04:07.242Z,7.70
2023-04-08T16:06:35.511Z,7.70
2023-04-08T16:09:03.455Z,7.70
2023-04-08T16:11:31.833Z,7.70
2023-04-08T16:13:59.901Z,7.70
2023-04-08T16:16:28.702Z,7.80
2023-04-08T16:18:56.862Z,7.70
2023-04-08T16:21:26.097Z,7.60
2023-04-08T16:23:53.936Z,7.70
2023-04-08T16:26:22.527Z,7.60
2023-04-08T16:28:50.889Z,7.60
2023-04-08T16:31:20.102Z,7.60
2023-04-08T16:33:48.155Z,7.70
2023-04-08T16:36:16.224Z,7.60
2023-04-08T16:38:45.526Z,7.70
2023-04-08T16:41:13.561Z,7.70
2023-04-08T16:43:41.487Z,7.70
2023-04-08T16:46:13.390Z,7.80
2023-04-08T16:48:41.921Z,7.90
2023-04-08T16:51:09.846Z,8.10
2023-04-08T16:53:38.485Z,8.20
2023-04-08T16:56:14.320Z,8.20
2023-04-08T16:58:42.533Z,8.40
2023-04-08T17:01:11.153Z,8.40
2023-04-08T17:03:39.480Z,8.30
2023-04-08T17:06:08.291Z,8.10
2023-04-08T17:08:36.383Z,8.00
2023-04-08T17:11:10.427Z,8.00
2023-04-08T17:13:39.406Z,7.90
2023-04-08T17:16:08.031Z,7.90
2023-04-08T17:18:35.987Z,8.00
2023-04-08T17:21:04.182Z,7.90
2023-04-08T17:23:32.091Z,8.00
2023-04-08T17:26:00.202Z,8.00
2023-04-08T17:28:29.618Z,7.80
2023-04-08T17:30:57.484Z,7.90
2023-04-08T17:33:25.695Z,7.90
2023-04-08T17:35:53.929Z,7.80
2023-04-08T17:38:21.942Z,7.90
2023-04-08T17:40:49.957Z,8.00
2023-04-08T17:43:17.864Z,8.00
2023-04-08T17:45:50.547Z,8.00
2023-04-08T17:48:18.885Z,8.00
2023-04-08T17:50:46.844Z,7.90
2023-04-08T17:53:14.903Z,7.80
2023-04-08T17:55:42.825Z,7.70
2023-04-08T17:58:10.761Z,7.80
2023-04-08T18:00:38.822Z,7.60
2023-04-08T18:03:09.310Z,7.50
2023-04-08T18:05:37.490Z,7.40
2023-04-08T18:08:05.501Z,7.30
2023-04-08T18:10:33.921Z,7.30
2023-04-08T18:13:10.794Z,7.30
2023-04-08T18:15:39.736Z,7.30
2023-04-08T18:18:09.236Z,7.30
2023-04-08T18:20:37.811Z,7.40
2023-04-08T18:23:05.990Z,7.40
2023-04-08T18:25:34.626Z,7.50
2023-04-08T18:28:02.645Z,7.60
2023-04-08T18:30:31.074Z,7.50
2023-04-08T18:32:59.187Z,7.50
2023-04-08T18:35:28.653Z,7.40
2023-04-08T18:37:57.266Z,7.50
2023-04-08T18:40:25.505Z,7.40
2023-04-08T18:42:53.942Z,7.40
2023-04-08T18:45:21.869Z,7.30
2023-04-08T18:47:49.835Z,7.30
2023-04-08T18:50:18.580Z,7.40
2023-04-08T18:52:47.927Z,7.30
2023-04-08T18:55:16.192Z,7.40
2023-04-08T18:57:44.854Z,7.50
2023-04-08T19:00:13.670Z,7.60
2023-04-08T19:02:41.846Z,7.70
2023-04-08T19:05:10.324Z,7.70
2023-04-08T19:07:38.495Z,7.60
2023-04-08T19:10:09.440Z,7.60
2023-04-08T19:12:37.684Z,7.50
2023-04-08T19:15:06.583Z,7.50
2023-04-08T19:17:34.521Z,7.40
2023-04-08T19:20:03.424Z,7.40
2023-04-08T19:22:32.187Z,7.40
2023-04-08T19:25:00.221Z,7.40
2023-04-08T19:27:29.498Z,7.40
2023-04-08T19:29:58.082Z,7.50
2023-04-08T19:32:26.768Z,7.60
2023-04-08T19:34:54.906Z,7.70
2023-04-08T19:37:22.854Z,7.60
2023-04-08T19:39:50.932Z,7.60
2023-04-08T19:42:19.636Z,7.70
2023-04-08T19:44:49.188Z,7.60
2023-04-08T19:47:17.656Z,7.60
2023-04-08T19:49:45.961Z,7.50
2023-04-08T19:52:13.869Z,7.50
2023-04-08T19:54:43.649Z,7.40
2023-04-08T19:57:12.223Z,7.60
2023-04-08T19:59:40.370Z,7.60
2023-04-08T20:02:09.817Z,7.50
2023-04-08T20:04:37.979Z,7.60
2023-04-08T20:07:06.004Z,7.80
2023-04-08T20:09:33.924Z,7.90
2023-04-08T20:12:04.810Z,7.80
2023-04-08T20:14:33.908Z,7.70
2023-04-08T20:17:02.420Z,7.70
2023-04-08T20:19:31.963Z,7.70
2023-04-08T20:22:00.021Z,7.70
2023-04-08T20:24:27.938Z,7.60
2023-04-08T20:26:56.230Z,7.50
2023-04-08T20:29:24.316Z,7.50
2023-04-08T20:31:52.303Z,7.50
2023-04-08T20:34:20.323Z,7.60
2023-04-08T20:36:50.120Z,7.60
2023-04-08T20:39:18.086Z,7.60
2023-04-08T20:41:46.550Z,7.60
2023-04-08T20:44:14.622Z,7.70
2023-04-08T20:46:42.797Z,7.80
2023-04-08T20:49:10.893Z,7.70
2023-04-08T20:51:39.367Z,7.80
2023-04-08T20:54:08.868Z,7.80
2023-04-08T20:56:36.848Z,7.80
2023-04-08T20:59:04.955Z,7.70
2023-04-08T21:01:33.062Z,7.80
2023-04-08T21:04:01.144Z,7.90
2023-04-08T21:06:29.030Z,7.60
2023-04-08T21:08:57.050Z,7.60
2023-04-08T21:11:27.830Z,7.50
2023-04-08T21:13:56.454Z,7.50
2023-04-08T21:16:24.400Z,7.50
2023-04-08T21:18:53.046Z,7.50
2023-04-08T21:21:21.491Z,7.30
2023-04-08T21:23:49.488Z,7.40
2023-04-08T21:26:17.585Z,7.30
2023-04-08T21:28:46.961Z,7.20
2023-04-08T21:31:14.992Z,7.30
2023-04-08T21:33:43.782Z,7.40
2023-04-08T21:36:11.714Z,7.40
2023-04-08T21:38:39.912Z,7.40
2023-04-08T21:41:07.791Z,7.40
2023-04-08T21:43:35.875Z,7.50
2023-04-08T21:46:06.031Z,7.80
2023-04-08T21:48:34.060Z,7.80
2023-04-08T21:51:02.049Z,7.80
2023-04-08T21:53:30.118Z,7.70
2023-04-08T21:55:58.175Z,7.70
2023-04-08T21:58:28.266Z,7.50
2023-04-08T22:00:56.286Z,7.40
2023-04-08T22:03:26.515Z,7.30
2023-04-08T22:05:55.002Z,7.30
2023-04-08T22:08:23.001Z,7.20
2023-04-08T22:10:51.859Z,7.30
2023-04-08T22:13:20.736Z,7.20
2023-04-08T22:15:48.720Z,7.20
2023-04-08T22:18:16.788Z,7.10
2023-04-08T22:20:46.259Z,7.10
2023-04-08T22:23:14.186Z,7.10
2023-04-08T22:25:42.352Z,7.10
2023-04-08T22:28:10.240Z,7.00
2023-04-08T22:30:38.509Z,6.90
2023-04-08T22:33:06.471Z,6.80
